Time;durP1;ratioP1;P1;durP2;ratioP2;P2;SDS_P1;SDS_P2;PMS_P1;PMS_P2;Temp;Humidity;BMP_temperature;BMP_pressure;BME280_temperature;BME280_humidity;BME280_pressure;Samples;Min_cycle;Max_cycle;Signal;HPM_P1;HPM_P2
2022/02/12 00:01:02;;;;;;;11.95;7.70;;;;;;;;;;5045006;28;20214;-73
2022/02/12 00:03:29;;;;;;;7.82;7.00;;;;;;;;;;5042514;28;20187;-73
2022/02/12 00:05:57;;;;;;;8.75;6.70;;;;;;;;;;5046946;28;20190;-73
2022/02/12 00:08:25;;;;;;;12.93;7.75;;;;;;;;;;5043361;28;20222;-73
2022/02/12 00:10:52;;;;;;;16.20;7.35;;;;;;;;;;5042391;28;20203;-73
2022/02/12 00:13:19;;;;;;;10.27;6.63;;;;;;;;;;5046209;28;20689;-73
2022/02/12 00:15:47;;;;;;;11.05;6.65;;;;;;;;;;5046892;28;20195;-74
2022/02/12 00:18:15;;;;;;;9.30;6.18;;;;;;;;;;5041566;28;20196;-74
2022/02/12 00:20:42;;;;;;;9.55;6.80;;;;;;;;;;5048254;28;20676;-74
2022/02/12 00:23:09;;;;;;;11.35;7.18;;;;;;;;;;5052441;28;20187;-73
2022/02/12 00:25:41;;;;;;;16.77;7.85;;;;;;;;;;5041179;28;20217;-74
2022/02/12 00:28:08;;;;;;;9.70;7.00;;;;;;;;;;5047423;28;20207;-73
2022/02/12 00:30:35;;;;;;;12.90;7.03;;;;;;;;;;5047072;28;20195;-75
2022/02/12 00:33:02;;;;;;;10.73;7.28;;;;;;;;;;5050995;28;20228;-75
2022/02/12 00:35:29;;;;;;;11.57;5.88;;;;;;;;;;5050424;28;20203;-75
2022/02/12 00:37:56;;;;;;;13.68;6.70;;;;;;;;;;5048274;28;20205;-75
2022/02/12 00:40:25;;;;;;;9.07;5.70;;;;;;;;;;5048069;28;20562;-74
2022/02/12 00:42:53;;;;;;;11.00;7.05;;;;;;;;;;5039927;28;20191;-75
2022/02/12 00:45:20;;;;;;;12.57;7.18;;;;;;;;;;5043395;28;20717;-75
2022/02/12 00:47:47;;;;;;;8.27;6.00;;;;;;;;;;5041885;28;20198;-75
2022/02/12 00:50:15;;;;;;;9.93;6.93;;;;;;;;;;5034118;28;20202;-74
2022/02/12 00:52:42;;;;;;;10.65;5.65;;;;;;;;;;5034564;28;20250;-75
2022/02/12 00:55:09;;;;;;;9.10;6.43;;;;;;;;;;5044594;28;20376;-75
2022/02/12 00:57:36;;;;;;;8.35;6.93;;;;;;;;;;5050930;28;20202;-75
2022/02/12 01:00:06;;;;;;;11.30;6.72;;;;;;;;;;5043233;28;20217;-75
2022/02/12 01:02:33;;;;;;;7.68;5.97;;;;;;;;;;5042269;28;20639;-75
2022/02/12 01:05:00;;;;;;;9.32;4.90;;;;;;;;;;5050298;28;20202;-75
2022/02/12 01:07:27;;;;;;;10.55;6.53;;;;;;;;;;5045931;28;20670;-74
2022/02/12 01:09:54;;;;;;;9.38;7.00;;;;;;;;;;5041873;28;20210;-74
2022/02/12 01:12:21;;;;;;;12.43;5.63;;;;;;;;;;5037886;28;20219;-75
2022/02/12 01:14:48;;;;;;;6.80;5.53;;;;;;;;;;5046837;28;20234;-74
2022/02/12 01:17:16;;;;;;;7.63;5.72;;;;;;;;;;5046196;28;20199;-74
2022/02/12 01:19:43;;;;;;;8.48;5.82;;;;;;;;;;5044608;28;20210;-75
2022/02/12 01:22:10;;;;;;;9.23;5.30;;;;;;;;;;5049929;28;20197;-75
2022/02/12 01:24:39;;;;;;;7.25;5.95;;;;;;;;;;5046410;28;20203;-75
2022/02/12 01:27:06;;;;;;;7.80;5.80;;;;;;;;;;5045403;28;20333;-75
2022/02/12 01:29:33;;;;;;;10.20;6.32;;;;;;;;;;5046601;28;20202;-74
2022/02/12 01:32:04;;;;;;;8.15;5.50;;;;;;;;;;5053079;28;20211;-75
2022/02/12 01:34:33;;;;;;;9.30;7.10;;;;;;;;;;5048486;28;20202;-75
2022/02/12 01:37:00;;;;;;;9.68;6.03;;;;;;;;;;5048242;28;20195;-75
2022/02/12 01:39:27;;;;;;;8.50;5.57;;;;;;;;;;5061994;28;20228;-75
2022/02/12 01:41:54;;;;;;;4.97;4.40;;;;;;;;;;5066842;28;20551;-75
2022/02/12 01:44:28;;;;;;;10.80;6.22;;;;;;;;;;5045140;28;20289;-74
2022/02/12 01:46:55;;;;;;;14.35;5.75;;;;;;;;;;5055187;28;20210;-73
2022/02/12 01:49:22;;;;;;;9.57;5.40;;;;;;;;;;5037140;28;20195;-73
2022/02/12 01:51:51;;;;;;;8.82;6.40;;;;;;;;;;5039648;28;20210;-73
2022/02/12 01:54:19;;;;;;;13.98;7.20;;;;;;;;;;5038015;28;20225;-74
2022/02/12 01:56:46;;;;;;;10.93;5.15;;;;;;;;;;5042422;28;20479;-74
2022/02/12 01:59:13;;;;;;;10.77;6.43;;;;;;;;;;5053834;28;20214;-74
2022/02/12 02:01:41;;;;;;;8.57;4.45;;;;;;;;;;5062294;28;20213;-74
2022/02/12 02:04:08;;;;;;;13.48;6.22;;;;;;;;;;5048683;28;20677;-74
2022/02/12 02:06:35;;;;;;;8.48;5.18;;;;;;;;;;5060905;28;20205;-74
2022/02/12 02:09:06;;;;;;;12.02;4.75;;;;;;;;;;5051758;28;20211;-73
2022/02/12 02:11:33;;;;;;;10.90;5.30;;;;;;;;;;5047186;28;20291;-74
2022/02/12 02:14:00;;;;;;;6.95;4.95;;;;;;;;;;5046210;28;20245;-74
2022/02/12 02:16:28;;;;;;;7.97;4.53;;;;;;;;;;5043871;28;20201;-75
2022/02/12 02:18:55;;;;;;;6.22;4.50;;;;;;;;;;5053153;28;20195;-75
2022/02/12 02:21:23;;;;;;;6.20;4.60;;;;;;;;;;5049848;28;20194;-74
2022/02/12 02:23:52;;;;;;;8.95;5.68;;;;;;;;;;5040840;28;20196;-75
2022/02/12 02:26:19;;;;;;;7.32;5.80;;;;;;;;;;5032123;28;20199;-74
2022/02/12 02:28:47;;;;;;;6.47;4.35;;;;;;;;;;5050678;28;20252;-74
2022/02/12 02:31:15;;;;;;;16.90;6.15;;;;;;;;;;5046328;28;20593;-75
2022/02/12 02:33:42;;;;;;;10.15;4.72;;;;;;;;;;5044261;28;20579;-74
2022/02/12 02:36:10;;;;;;;7.22;5.43;;;;;;;;;;5038121;28;20192;-74
2022/02/12 02:38:37;;;;;;;11.05;4.70;;;;;;;;;;5052929;28;20659;-74
2022/02/12 02:41:06;;;;;;;6.82;5.13;;;;;;;;;;5048339;28;20658;-74
2022/02/12 02:43:33;;;;;;;8.38;4.45;;;;;;;;;;5049638;28;20656;-75
2022/02/12 02:46:00;;;;;;;6.22;5.63;;;;;;;;;;5046590;28;20587;-74
2022/02/12 02:48:27;;;;;;;6.47;4.53;;;;;;;;;;5054023;28;20195;-75
2022/02/12 02:56:25;;;;;;;7.28;4.55;;;;;;;;;;5044047;28;20193;-74
2022/02/12 02:58:55;;;;;;;7.28;4.75;;;;;;;;;;5050488;28;20214;-74
2022/02/12 03:01:23;;;;;;;6.47;4.45;;;;;;;;;;5050407;28;20210;-74
2022/02/12 03:03:52;;;;;;;10.55;7.80;;;;;;;;;;5068567;28;20230;-74
2022/02/12 03:06:20;;;;;;;7.40;4.40;;;;;;;;;;5052587;28;20563;-75
2022/02/12 03:08:47;;;;;;;6.25;4.43;;;;;;;;;;5059447;28;20194;-74
2022/02/12 03:11:15;;;;;;;8.70;5.43;;;;;;;;;;5060126;28;20196;-75
2022/02/12 03:13:44;;;;;;;8.10;5.35;;;;;;;;;;5053807;28;20218;-75
2022/02/12 03:16:11;;;;;;;5.50;4.32;;;;;;;;;;5043409;28;20204;-75
2022/02/12 03:18:39;;;;;;;8.45;4.70;;;;;;;;;;5047143;28;20206;-74
2022/02/12 03:21:06;;;;;;;5.38;4.13;;;;;;;;;;5048968;28;20205;-74
2022/02/12 03:23:34;;;;;;;10.00;4.22;;;;;;;;;;5048461;28;20203;-74
2022/02/12 03:26:01;;;;;;;6.18;4.90;;;;;;;;;;5054273;28;20569;-74
2022/02/12 03:28:28;;;;;;;4.90;3.45;;;;;;;;;;5044263;28;20206;-74
2022/02/12 03:30:57;;;;;;;6.60;4.03;;;;;;;;;;5049842;28;20658;-74
2022/02/12 03:33:24;;;;;;;9.45;4.35;;;;;;;;;;5047879;28;20242;-74
2022/02/12 03:35:53;;;;;;;5.78;3.90;;;;;;;;;;5044561;28;20199;-75
2022/02/12 03:38:23;;;;;;;7.05;4.18;;;;;;;;;;5048205;28;20557;-75
2022/02/12 03:40:51;;;;;;;5.38;4.50;;;;;;;;;;5051156;28;20249;-75
2022/02/12 03:43:19;;;;;;;6.18;4.00;;;;;;;;;;5047951;28;20659;-75
2022/02/12 03:45:46;;;;;;;4.85;3.25;;;;;;;;;;5054210;28;20273;-75
2022/02/12 03:48:15;;;;;;;7.45;4.30;;;;;;;;;;5041223;28;20214;-75
2022/02/12 03:50:42;;;;;;;7.35;5.05;;;;;;;;;;5055254;28;20205;-75
2022/02/12 03:53:10;;;;;;;5.13;4.03;;;;;;;;;;5051388;28;20223;-75
2022/02/12 03:55:39;;;;;;;6.00;3.58;;;;;;;;;;5051468;28;20207;-75
2022/02/12 03:58:06;;;;;;;7.30;4.20;;;;;;;;;;5042252;28;20202;-76
2022/02/12 04:00:34;;;;;;;5.60;4.13;;;;;;;;;;5051309;28;20214;-76
2022/02/12 04:03:01;;;;;;;5.75;4.47;;;;;;;;;;5052569;28;20237;-76
2022/02/12 04:05:30;;;;;;;4.75;4.35;;;;;;;;;;5060201;28;20202;-76
2022/02/12 04:07:57;;;;;;;7.55;4.80;;;;;;;;;;5043877;28;20217;-76
2022/02/12 04:10:24;;;;;;;5.85;3.58;;;;;;;;;;5057597;28;20194;-76
2022/02/12 04:12:52;;;;;;;6.97;4.95;;;;;;;;;;5059859;28;20212;-75
2022/02/12 04:15:19;;;;;;;6.00;3.70;;;;;;;;;;5051669;28;20561;-76
2022/02/12 04:17:46;;;;;;;8.23;3.90;;;;;;;;;;5038556;28;20662;-76
2022/02/12 04:20:14;;;;;;;11.43;4.72;;;;;;;;;;5043810;28;20206;-76
2022/02/12 04:22:43;;;;;;;6.38;3.95;;;;;;;;;;5044522;28;20195;-75
2022/02/12 04:25:11;;;;;;;5.05;4.00;;;;;;;;;;5044586;28;20187;-75
2022/02/12 04:27:39;;;;;;;10.52;3.70;;;;;;;;;;5038943;28;20578;-76
2022/02/12 04:30:07;;;;;;;8.75;4.30;;;;;;;;;;5044963;28;20191;-75
2022/02/12 04:32:34;;;;;;;5.53;3.17;;;;;;;;;;5035517;28;20207;-77
2022/02/12 04:35:02;;;;;;;7.03;3.50;;;;;;;;;;5049340;28;20191;-76
2022/02/12 04:37:29;;;;;;;5.45;3.25;;;;;;;;;;5040526;28;20203;-76
2022/02/12 04:39:57;;;;;;;7.45;3.78;;;;;;;;;;5036566;28;20207;-77
2022/02/12 04:42:25;;;;;;;7.65;4.53;;;;;;;;;;5042690;28;20969;-77
2022/02/12 04:44:53;;;;;;;6.07;3.70;;;;;;;;;;5038021;28;20697;-76
2022/02/12 04:47:20;;;;;;;6.20;3.88;;;;;;;;;;5036619;28;20207;-77
2022/02/12 04:49:49;;;;;;;6.78;3.95;;;;;;;;;;5046525;28;20570;-76
2022/02/12 04:52:17;;;;;;;5.13;3.15;;;;;;;;;;5041240;28;20195;-76
2022/02/12 04:54:44;;;;;;;5.63;4.25;;;;;;;;;;5051520;28;20226;-76
2022/02/12 04:57:12;;;;;;;6.68;3.78;;;;;;;;;;5042860;28;20200;-76
2022/02/12 04:59:40;;;;;;;7.20;4.05;;;;;;;;;;5046565;28;20211;-76
2022/02/12 05:02:07;;;;;;;7.18;3.85;;;;;;;;;;5039654;28;20659;-75
2022/02/12 05:04:34;;;;;;;5.50;3.72;;;;;;;;;;5037815;28;20656;-76
2022/02/12 05:07:01;;;;;;;6.15;3.67;;;;;;;;;;5039431;28;20215;-76
2022/02/12 05:09:31;;;;;;;5.32;4.05;;;;;;;;;;5049768;28;20574;-77
2022/02/12 05:11:58;;;;;;;10.80;3.92;;;;;;;;;;5051338;28;20195;-77
2022/02/12 05:14:29;;;;;;;7.03;3.22;;;;;;;;;;5043455;28;20219;-76
2022/02/12 05:16:56;;;;;;;7.65;4.38;;;;;;;;;;5049619;28;20203;-76
2022/02/12 05:19:23;;;;;;;6.15;3.42;;;;;;;;;;5051642;28;20206;-76
2022/02/12 05:21:50;;;;;;;7.95;4.25;;;;;;;;;;5045180;28;20195;-75
2022/02/12 05:24:18;;;;;;;6.05;3.97;;;;;;;;;;5048906;28;20213;-76
2022/02/12 05:26:45;;;;;;;3.40;3.10;;;;;;;;;;5056960;28;20301;-75
2022/02/12 05:29:12;;;;;;;5.35;4.13;;;;;;;;;;5047984;28;20647;-75
2022/02/12 05:31:40;;;;;;;4.90;4.00;;;;;;;;;;5051641;28;20199;-76
2022/02/12 05:34:07;;;;;;;11.25;3.53;;;;;;;;;;5048463;28;20217;-75
2022/02/12 05:36:34;;;;;;;14.43;4.07;;;;;;;;;;5049496;28;20199;-75
2022/02/12 05:39:02;;;;;;;4.05;3.20;;;;;;;;;;5049817;28;20198;-76
2022/02/12 05:41:29;;;;;;;4.70;3.42;;;;;;;;;;5055822;28;20205;-76
2022/02/12 05:43:56;;;;;;;10.23;3.30;;;;;;;;;;5045389;28;20191;-75
2022/02/12 05:46:24;;;;;;;4.68;3.17;;;;;;;;;;5044276;28;20227;-75
2022/02/12 05:48:52;;;;;;;7.63;3.33;;;;;;;;;;5047527;28;20202;-75
2022/02/12 05:51:21;;;;;;;7.03;4.47;;;;;;;;;;5042543;28;20211;-76
2022/02/12 05:53:48;;;;;;;7.25;3.13;;;;;;;;;;5048250;28;20257;-76
2022/02/12 05:56:15;;;;;;;6.18;3.35;;;;;;;;;;5044436;28;20201;-76
2022/02/12 05:58:42;;;;;;;5.20;3.70;;;;;;;;;;5048942;28;20191;-74
2022/02/12 06:01:09;;;;;;;5.95;3.35;;;;;;;;;;5056163;28;20206;-74
2022/02/12 06:03:36;;;;;;;7.80;3.83;;;;;;;;;;5055154;28;20708;-74
2022/02/12 06:06:05;;;;;;;6.30;2.95;;;;;;;;;;5053575;28;20661;-74
2022/02/12 06:08:32;;;;;;;4.50;3.38;;;;;;;;;;5057489;28;20585;-76
2022/02/12 06:11:01;;;;;;;7.45;3.10;;;;;;;;;;5048182;28;20338;-76
2022/02/12 06:13:29;;;;;;;5.13;3.42;;;;;;;;;;5046779;28;20223;-75
2022/02/12 06:15:56;;;;;;;5.28;3.17;;;;;;;;;;5045359;28;20196;-75
2022/02/12 06:18:23;;;;;;;5.60;3.08;;;;;;;;;;5051462;28;20195;-74
2022/02/12 06:20:50;;;;;;;6.18;3.83;;;;;;;;;;5045474;28;20249;-76
2022/02/12 06:23:20;;;;;;;5.57;3.75;;;;;;;;;;5046900;28;20267;-76
2022/02/12 06:25:47;;;;;;;6.65;3.78;;;;;;;;;;5045235;28;20234;-76
2022/02/12 06:28:15;;;;;;;4.80;3.08;;;;;;;;;;5050867;28;20260;-75
2022/02/12 06:30:42;;;;;;;6.88;3.70;;;;;;;;;;5039719;28;20215;-75
2022/02/12 06:33:10;;;;;;;10.07;3.22;;;;;;;;;;5049614;28;20292;-75
2022/02/12 06:35:37;;;;;;;3.35;2.80;;;;;;;;;;5045775;28;20736;-75
2022/02/12 06:38:04;;;;;;;6.18;3.13;;;;;;;;;;5037684;28;20207;-75
2022/02/12 06:40:32;;;;;;;6.22;3.40;;;;;;;;;;5047747;28;20203;-75
2022/02/12 06:43:01;;;;;;;5.60;3.38;;;;;;;;;;5045998;28;20199;-76
2022/02/12 06:45:28;;;;;;;9.13;3.65;;;;;;;;;;5044897;28;20320;-75
2022/02/12 06:47:55;;;;;;;3.97;3.15;;;;;;;;;;5046407;28;20226;-76
2022/02/12 06:50:22;;;;;;;7.25;3.20;;;;;;;;;;5043840;28;20195;-75
2022/02/12 06:52:49;;;;;;;8.43;3.10;;;;;;;;;;5045137;28;20206;-75
2022/02/12 06:55:16;;;;;;;6.10;3.83;;;;;;;;;;5046235;28;20583;-77
2022/02/12 06:57:45;;;;;;;4.07;3.08;;;;;;;;;;5043344;28;20203;-76
2022/02/12 07:00:12;;;;;;;10.07;3.80;;;;;;;;;;5044837;28;20208;-75
2022/02/12 07:02:39;;;;;;;10.15;3.92;;;;;;;;;;5047078;28;20502;-75
2022/02/12 07:05:07;;;;;;;6.75;3.90;;;;;;;;;;5034597;28;20194;-76
2022/02/12 07:07:34;;;;;;;5.38;3.13;;;;;;;;;;5044225;28;20267;-75
2022/02/12 07:10:01;;;;;;;3.88;3.00;;;;;;;;;;5041673;28;20658;-75
2022/02/12 07:12:28;;;;;;;2.92;2.67;;;;;;;;;;5041268;28;20195;-75
2022/02/12 07:14:57;;;;;;;4.05;2.97;;;;;;;;;;5047164;28;20218;-75
2022/02/12 07:17:24;;;;;;;3.40;2.90;;;;;;;;;;5049332;28;20202;-75
2022/02/12 07:19:51;;;;;;;5.40;3.97;;;;;;;;;;5053953;28;20272;-75
2022/02/12 07:22:25;;;;;;;3.22;2.35;;;;;;;;;;5053510;28;20199;-75
2022/02/12 07:24:52;;;;;;;3.80;2.58;;;;;;;;;;5050525;28;20278;-75
2022/02/12 07:27:19;;;;;;;8.35;3.58;;;;;;;;;;5048953;28;20195;-75
2022/02/12 07:29:46;;;;;;;3.47;2.95;;;;;;;;;;5045005;28;20261;-76
2022/02/12 07:32:15;;;;;;;3.83;2.58;;;;;;;;;;5055817;28;20194;-76
2022/02/12 07:34:42;;;;;;;7.10;3.92;;;;;;;;;;5055613;28;20216;-76
2022/02/12 07:37:09;;;;;;;7.15;3.58;;;;;;;;;;5050082;28;20553;-76
2022/02/12 07:39:36;;;;;;;5.32;2.63;;;;;;;;;;5048375;28;20658;-75
2022/02/12 07:42:04;;;;;;;6.70;3.35;;;;;;;;;;5054646;28;20199;-75
2022/02/12 07:44:31;;;;;;;7.97;3.35;;;;;;;;;;5042712;28;20212;-74
2022/02/12 07:46:58;;;;;;;4.63;2.83;;;;;;;;;;5049756;28;20198;-75
2022/02/12 07:49:26;;;;;;;5.40;2.60;;;;;;;;;;5049996;28;20203;-76
2022/02/12 07:51:54;;;;;;;4.85;3.05;;;;;;;;;;5044566;28;20321;-75
2022/02/12 07:54:21;;;;;;;5.50;3.10;;;;;;;;;;5045755;28;20214;-75
2022/02/12 07:56:53;;;;;;;3.92;2.90;;;;;;;;;;5051151;28;20202;-75
2022/02/12 07:59:22;;;;;;;3.95;2.75;;;;;;;;;;5046283;28;20195;-74
2022/02/12 08:01:49;;;;;;;6.97;3.63;;;;;;;;;;5048192;28;20245;-76
2022/02/12 08:04:16;;;;;;;5.57;3.15;;;;;;;;;;5047480;28;20202;-75
2022/02/12 08:09:31;;;;;;;8.88;3.13;;;;;;;;;;5038522;28;20685;-75
2022/02/12 08:12:06;;;;;;;3.75;3.05;;;;;;;;;;5052004;28;20237;-76
2022/02/12 08:14:34;;;;;;;5.28;3.00;;;;;;;;;;5042862;28;20246;-75
2022/02/12 08:17:02;;;;;;;4.20;3.08;;;;;;;;;;5045225;28;20203;-75
2022/02/12 08:19:29;;;;;;;7.45;3.35;;;;;;;;;;5047840;28;20361;-75
2022/02/12 08:21:58;;;;;;;3.85;3.28;;;;;;;;;;5047982;28;20191;-76
2022/02/12 08:24:26;;;;;;;7.32;3.50;;;;;;;;;;5045314;28;20195;-75
2022/02/12 08:26:53;;;;;;;5.40;2.50;;;;;;;;;;5041178;28;20414;-75
2022/02/12 08:29:20;;;;;;;6.97;2.72;;;;;;;;;;5047078;28;20200;-75
2022/02/12 08:31:47;;;;;;;9.25;3.55;;;;;;;;;;5046108;28;20701;-75
2022/02/12 08:34:15;;;;;;;5.00;2.63;;;;;;;;;;5047898;28;20686;-75
2022/02/12 08:36:42;;;;;;;5.93;3.05;;;;;;;;;;5046435;28;20200;-75
2022/02/12 08:39:11;;;;;;;5.78;3.42;;;;;;;;;;5051130;28;20199;-75
2022/02/12 08:41:38;;;;;;;9.88;2.95;;;;;;;;;;5052395;28;20207;-75
2022/02/12 08:44:05;;;;;;;5.07;2.80;;;;;;;;;;5049275;28;20213;-75
2022/02/12 08:46:32;;;;;;;5.72;2.92;;;;;;;;;;5047602;28;20230;-75
2022/02/12 08:48:59;;;;;;;5.60;3.10;;;;;;;;;;5048942;28;20202;-76
2022/02/12 08:51:27;;;;;;;5.15;2.63;;;;;;;;;;5049771;28;20195;-76
2022/02/12 08:53:54;;;;;;;5.18;3.15;;;;;;;;;;5045233;28;20201;-75
2022/02/12 08:56:24;;;;;;;4.60;2.50;;;;;;;;;;5046385;28;20195;-75
2022/02/12 08:58:51;;;;;;;7.43;2.85;;;;;;;;;;5042664;28;20290;-76
2022/02/12 09:01:18;;;;;;;6.03;2.33;;;;;;;;;;5046561;28;20677;-75
2022/02/12 09:03:45;;;;;;;3.85;2.50;;;;;;;;;;5043307;28;20202;-76
2022/02/12 09:06:13;;;;;;;6.75;2.45;;;;;;;;;;5042248;28;20206;-76
2022/02/12 09:08:40;;;;;;;6.38;2.90;;;;;;;;;;5044158;28;20195;-75
2022/02/12 09:11:07;;;;;;;7.03;2.53;;;;;;;;;;5040927;28;20206;-75
2022/02/12 09:13:35;;;;;;;6.07;2.63;;;;;;;;;;5049637;28;20218;-75
2022/02/12 09:16:03;;;;;;;5.65;2.88;;;;;;;;;;5046905;28;20697;-75
2022/02/12 09:18:30;;;;;;;8.40;3.10;;;;;;;;;;5049071;28;20234;-75
2022/02/12 09:20:58;;;;;;;5.93;2.50;;;;;;;;;;5030778;28;20203;-75
2022/02/12 09:23:25;;;;;;;4.13;2.08;;;;;;;;;;5045732;28;20199;-74
2022/02/12 09:25:52;;;;;;;4.00;3.20;;;;;;;;;;5050678;28;20198;-75
2022/02/12 09:28:19;;;;;;;3.35;2.72;;;;;;;;;;5044775;28;20202;-75
2022/02/12 09:30:47;;;;;;;5.47;3.03;;;;;;;;;;5042841;28;20203;-75
2022/02/12 09:33:14;;;;;;;9.18;3.80;;;;;;;;;;5048965;28;20202;-74
2022/02/12 09:35:41;;;;;;;6.38;2.47;;;;;;;;;;5036639;28;20211;-75
2022/02/12 09:38:08;;;;;;;5.10;2.67;;;;;;;;;;5044333;28;20203;-74
2022/02/12 09:40:35;;;;;;;6.45;3.15;;;;;;;;;;5049819;28;20666;-74
2022/02/12 09:43:03;;;;;;;4.63;2.60;;;;;;;;;;5048197;28;20643;-74
2022/02/12 09:45:32;;;;;;;7.00;3.13;;;;;;;;;;5047694;28;20694;-74
2022/02/12 09:48:01;;;;;;;9.23;3.08;;;;;;;;;;5032915;28;20199;-75
2022/02/12 09:50:28;;;;;;;6.47;2.58;;;;;;;;;;5036465;28;20194;-74
2022/02/12 09:52:56;;;;;;;5.78;2.58;;;;;;;;;;5040715;28;20199;-75
2022/02/12 09:55:24;;;;;;;2.85;1.80;;;;;;;;;;5032610;28;20555;-74
2022/02/12 09:57:51;;;;;;;4.60;2.45;;;;;;;;;;5036291;28;20210;-74
2022/02/12 10:00:19;;;;;;;5.85;2.50;;;;;;;;;;5040428;28;20253;-74
2022/02/12 10:02:47;;;;;;;4.47;2.30;;;;;;;;;;5042503;28;20582;-74
2022/02/12 10:05:22;;;;;;;2.75;2.17;;;;;;;;;;5042325;28;20206;-74
2022/02/12 10:07:50;;;;;;;3.58;2.30;;;;;;;;;;5043570;28;20203;-74
2022/02/12 10:10:18;;;;;;;5.72;2.70;;;;;;;;;;5038495;28;20199;-74
2022/02/12 10:12:45;;;;;;;3.30;2.47;;;;;;;;;;5039386;28;20667;-74
2022/02/12 10:15:13;;;;;;;5.80;2.85;;;;;;;;;;5038496;28;20695;-74
2022/02/12 10:17:51;;;;;;;3.85;2.60;;;;;;;;;;5044454;28;20316;-74
2022/02/12 10:20:25;;;;;;;3.70;2.72;;;;;;;;;;5036539;28;20662;-74
2022/02/12 10:22:53;;;;;;;5.18;3.05;;;;;;;;;;5043301;28;20603;-74
2022/02/12 10:25:20;;;;;;;8.35;4.10;;;;;;;;;;5042230;28;20249;-74
2022/02/12 10:27:49;;;;;;;3.92;2.95;;;;;;;;;;5034873;28;20198;-74
2022/02/12 10:30:16;;;;;;;7.25;2.70;;;;;;;;;;5033913;28;20205;-74
2022/02/12 10:32:43;;;;;;;9.02;3.60;;;;;;;;;;5041305;28;20205;-75
2022/02/12 10:35:11;;;;;;;6.35;3.80;;;;;;;;;;5039436;28;20215;-74
2022/02/12 10:37:43;;;;;;;4.25;2.90;;;;;;;;;;5038227;28;20657;-74
2022/02/12 10:40:11;;;;;;;6.05;3.22;;;;;;;;;;5046391;28;20203;-74
2022/02/12 10:42:43;;;;;;;7.50;3.00;;;;;;;;;;5041885;28;20632;-74
2022/02/12 10:45:13;;;;;;;8.35;4.18;;;;;;;;;;5044427;28;20246;-74
2022/02/12 10:47:40;;;;;;;10.35;4.70;;;;;;;;;;5030647;28;20667;-75
2022/02/12 10:50:08;;;;;;;8.10;3.05;;;;;;;;;;5040772;28;20551;-74
2022/02/12 10:52:40;;;;;;;9.80;4.43;;;;;;;;;;5039429;28;20199;-74
2022/02/12 10:55:10;;;;;;;6.28;3.00;;;;;;;;;;5043374;28;20697;-75
2022/02/12 10:57:38;;;;;;;12.52;2.75;;;;;;;;;;5047633;28;20630;-74
2022/02/12 11:00:06;;;;;;;8.57;2.90;;;;;;;;;;5031367;28;20207;-74
2022/02/12 11:02:34;;;;;;;7.60;3.67;;;;;;;;;;5042030;28;20636;-74
2022/02/12 11:05:02;;;;;;;8.00;3.25;;;;;;;;;;5041922;28;20277;-74
2022/02/12 11:07:29;;;;;;;5.75;3.03;;;;;;;;;;5038503;28;20195;-74
2022/02/12 11:09:57;;;;;;;6.53;3.45;;;;;;;;;;5041569;28;20199;-76
2022/02/12 11:12:29;;;;;;;7.78;2.95;;;;;;;;;;5038997;28;20226;-74
2022/02/12 11:14:57;;;;;;;8.30;2.53;;;;;;;;;;5041732;28;20321;-74
2022/02/12 11:17:25;;;;;;;8.13;2.78;;;;;;;;;;5042545;28;20210;-73
2022/02/12 11:19:53;;;;;;;12.40;2.83;;;;;;;;;;5032962;28;21687;-74
2022/02/12 11:22:20;;;;;;;4.18;2.20;;;;;;;;;;5044463;28;20450;-75
2022/02/12 11:24:48;;;;;;;7.28;2.70;;;;;;;;;;5047770;28;20214;-75
2022/02/12 11:27:16;;;;;;;2.83;2.05;;;;;;;;;;5034676;28;20289;-74
2022/02/12 11:29:45;;;;;;;6.30;2.40;;;;;;;;;;5036472;28;20507;-74
2022/02/12 11:32:14;;;;;;;5.53;2.28;;;;;;;;;;5029910;28;20200;-73
2022/02/12 11:34:45;;;;;;;4.35;2.25;;;;;;;;;;5033336;28;20285;-74
2022/02/12 11:37:16;;;;;;;6.72;2.47;;;;;;;;;;5041634;28;20195;-75
2022/02/12 11:39:43;;;;;;;6.35;1.95;;;;;;;;;;5039852;28;20199;-75
2022/02/12 11:42:13;;;;;;;3.90;2.35;;;;;;;;;;5040535;28;20202;-74
2022/02/12 11:44:40;;;;;;;5.85;2.22;;;;;;;;;;5048334;28;20203;-74
2022/02/12 11:47:09;;;;;;;4.70;2.28;;;;;;;;;;5037373;28;20248;-74
2022/02/12 11:49:37;;;;;;;1.73;1.58;;;;;;;;;;5033200;28;20198;-74
2022/02/12 11:52:08;;;;;;;6.57;2.20;;;;;;;;;;5033781;28;20207;-74
2022/02/12 11:54:57;;;;;;;4.97;2.20;;;;;;;;;;5030706;28;20198;-74
2022/02/12 11:57:42;;;;;;;5.97;2.63;;;;;;;;;;5031544;28;20203;-75
2022/02/12 12:00:36;;;;;;;4.00;1.80;;;;;;;;;;5031055;28;20315;-74
2022/02/12 12:03:09;;;;;;;3.72;2.47;;;;;;;;;;5006081;28;20198;-75
2022/02/12 12:05:36;;;;;;;2.80;1.95;;;;;;;;;;5041824;28;20230;-74
2022/02/12 12:08:15;;;;;;;3.88;1.90;;;;;;;;;;5032967;28;20222;-74
2022/02/12 12:10:57;;;;;;;2.60;1.80;;;;;;;;;;5041504;28;20195;-73
2022/02/12 12:13:40;;;;;;;3.47;2.30;;;;;;;;;;5030392;28;20199;-73
2022/02/12 12:16:23;;;;;;;4.07;1.92;;;;;;;;;;5034128;28;20222;-74
2022/02/12 12:18:52;;;;;;;4.00;1.85;;;;;;;;;;5031316;28;20199;-74
2022/02/12 12:21:20;;;;;;;2.42;1.98;;;;;;;;;;5032241;28;20199;-74
2022/02/12 12:23:55;;;;;;;7.72;2.17;;;;;;;;;;5033061;28;20207;-74
2022/02/12 12:26:27;;;;;;;4.30;2.22;;;;;;;;;;5044036;28;20195;-74
2022/02/12 12:31:39;;;;;;;5.78;1.80;;;;;;;;;;5034054;28;20596;-75
2022/02/12 12:34:10;;;;;;;2.05;1.67;;;;;;;;;;5034937;28;20378;-75
2022/02/12 12:36:38;;;;;;;2.67;1.70;;;;;;;;;;5043287;28;20226;-75
2022/02/12 12:39:10;;;;;;;3.70;2.60;;;;;;;;;;5039530;28;20198;-75
2022/02/12 12:41:39;;;;;;;8.20;2.03;;;;;;;;;;5041680;28;20590;-75
2022/02/12 12:44:10;;;;;;;2.55;1.75;;;;;;;;;;5042126;28;20209;-75
2022/02/12 12:46:38;;;;;;;4.30;1.80;;;;;;;;;;5040096;28;20292;-75
2022/02/12 12:49:05;;;;;;;3.63;2.13;;;;;;;;;;5030377;28;20203;-75
2022/02/12 12:51:33;;;;;;;2.70;1.88;;;;;;;;;;5035110;28;20230;-75
2022/02/12 12:54:00;;;;;;;3.75;1.90;;;;;;;;;;5038804;28;20210;-76
2022/02/12 12:56:28;;;;;;;3.17;1.73;;;;;;;;;;5043866;28;20498;-75
2022/02/12 12:59:05;;;;;;;4.57;1.63;;;;;;;;;;5030483;28;20218;-75
2022/02/12 13:01:32;;;;;;;3.55;1.80;;;;;;;;;;5033795;28;20211;-75
2022/02/12 13:03:59;;;;;;;4.32;1.70;;;;;;;;;;5050015;28;20305;-75
2022/02/12 13:06:26;;;;;;;5.57;1.70;;;;;;;;;;5041426;28;20200;-75
2022/02/12 13:08:55;;;;;;;4.38;1.98;;;;;;;;;;5033195;28;20206;-74
2022/02/12 13:11:29;;;;;;;4.40;2.00;;;;;;;;;;5047343;28;20203;-75
2022/02/12 13:14:03;;;;;;;5.60;2.20;;;;;;;;;;5030657;28;20308;-74
2022/02/12 13:16:34;;;;;;;4.47;1.63;;;;;;;;;;5037792;28;20248;-75
2022/02/12 13:19:03;;;;;;;4.05;1.80;;;;;;;;;;5044051;28;20195;-75
2022/02/12 13:21:30;;;;;;;5.22;1.70;;;;;;;;;;5044955;28;20326;-75
2022/02/12 13:24:04;;;;;;;4.25;1.75;;;;;;;;;;5039408;28;20230;-75
2022/02/12 13:26:31;;;;;;;6.05;1.55;;;;;;;;;;5044262;28;20658;-75
2022/02/12 13:28:58;;;;;;;3.40;1.70;;;;;;;;;;5041211;28;20195;-74
2022/02/12 13:31:26;;;;;;;4.80;1.92;;;;;;;;;;5032866;28;20194;-75
2022/02/12 13:34:01;;;;;;;3.20;1.83;;;;;;;;;;5034943;28;20206;-74
2022/02/12 13:36:28;;;;;;;2.55;1.30;;;;;;;;;;5040984;28;20223;-74
2022/02/12 13:39:04;;;;;;;2.78;1.50;;;;;;;;;;5045634;28;20755;-74
2022/02/12 13:41:31;;;;;;;4.13;2.55;;;;;;;;;;5028930;28;20209;-75
2022/02/12 13:43:59;;;;;;;8.32;2.13;;;;;;;;;;5030143;28;20207;-75
2022/02/12 13:46:26;;;;;;;4.70;1.98;;;;;;;;;;5028582;28;20219;-75
2022/02/12 13:48:53;;;;;;;3.25;1.42;;;;;;;;;;5038206;28;20666;-74
2022/02/12 13:51:21;;;;;;;4.60;1.50;;;;;;;;;;5046465;28;20206;-75
2022/02/12 13:53:49;;;;;;;4.10;1.83;;;;;;;;;;5041937;28;20211;-75
2022/02/12 13:56:17;;;;;;;5.57;1.90;;;;;;;;;;5029595;28;20564;-74
2022/02/12 13:58:44;;;;;;;2.65;1.70;;;;;;;;;;5033573;28;20239;-75
2022/02/12 14:01:12;;;;;;;6.00;1.20;;;;;;;;;;5031149;28;20287;-74
2022/02/12 14:03:40;;;;;;;4.15;1.70;;;;;;;;;;5038962;28;20566;-75
2022/02/12 14:06:08;;;;;;;4.95;1.90;;;;;;;;;;5041912;28;20703;-75
2022/02/12 14:08:36;;;;;;;2.38;1.77;;;;;;;;;;5043490;28;20234;-76
2022/02/12 14:11:03;;;;;;;5.45;2.45;;;;;;;;;;5036120;28;20202;-76
2022/02/12 14:13:31;;;;;;;1.55;1.42;;;;;;;;;;5039181;28;20203;-75
2022/02/12 14:15:59;;;;;;;2.50;1.50;;;;;;;;;;5039692;28;20638;-74
2022/02/12 14:18:26;;;;;;;6.63;2.20;;;;;;;;;;5044071;28;20293;-75
2022/02/12 14:20:53;;;;;;;2.85;1.80;;;;;;;;;;5034749;28;20658;-72
2022/02/12 14:23:21;;;;;;;3.00;2.05;;;;;;;;;;5041281;28;20203;-75
2022/02/12 14:25:48;;;;;;;3.58;1.40;;;;;;;;;;5045033;28;20211;-75
2022/02/12 14:28:16;;;;;;;2.20;1.65;;;;;;;;;;5037400;28;20211;-74
2022/02/12 14:30:45;;;;;;;2.05;1.33;;;;;;;;;;5035116;28;20775;-75
2022/02/12 14:33:12;;;;;;;3.83;1.40;;;;;;;;;;5033872;28;20253;-76
2022/02/12 14:35:40;;;;;;;1.80;1.52;;;;;;;;;;5037013;28;20203;-75
2022/02/12 14:38:07;;;;;;;2.25;2.13;;;;;;;;;;5034349;28;20211;-74
2022/02/12 14:40:34;;;;;;;5.03;1.75;;;;;;;;;;5029191;28;20891;-74
2022/02/12 14:43:01;;;;;;;3.55;1.67;;;;;;;;;;5033694;28;20558;-74
2022/02/12 14:45:29;;;;;;;2.58;2.38;;;;;;;;;;5030027;28;20678;-75
2022/02/12 14:47:58;;;;;;;3.20;1.80;;;;;;;;;;5030263;28;20234;-74
2022/02/12 14:50:25;;;;;;;2.65;1.40;;;;;;;;;;5033381;28;20305;-75
2022/02/12 14:52:52;;;;;;;2.50;1.80;;;;;;;;;;5031471;28;20432;-75
2022/02/12 14:55:19;;;;;;;3.13;1.70;;;;;;;;;;5029622;28;20198;-74
2022/02/12 14:57:46;;;;;;;3.75;2.78;;;;;;;;;;5033960;28;20405;-75